sensor_id;sensor_type;location;lat;lon;timestamp;pressure;altitude;pressure_sealevel;temperature
15626;BMP180;7912;51.376;6.126;2023-02-01T00:00:01;101717.00;;;10.10
15626;BMP180;7912;51.376;6.126;2023-02-01T00:02:28;101706.00;;;10.10
15626;BMP180;7912;51.376;6.126;2023-02-01T00:04:56;101710.00;;;10.10
15626;BMP180;7912;51.376;6.126;2023-02-01T00:07:23;101707.00;;;10.20
15626;BMP180;7912;51.376;6.126;2023-02-01T00:09:50;101689.00;;;10.20
15626;BMP180;7912;51.376;6.126;2023-02-01T00:12:17;101690.00;;;10.20
15626;BMP180;7912;51.376;6.126;2023-02-01T00:14:46;101690.00;;;10.20
15626;BMP180;7912;51.376;6.126;2023-02-01T00:17:15;101683.00;;;10.20
15626;BMP180;7912;51.376;6.126;2023-02-01T00:19:42;101689.00;;;10.10
15626;BMP180;7912;51.376;6.126;2023-02-01T00:22:09;101684.00;;;10.00
15626;BMP180;7912;51.376;6.126;2023-02-01T00:24:37;101682.00;;;10.00
15626;BMP180;7912;51.376;6.126;2023-02-01T00:27:04;101681.00;;;9.90
15626;BMP180;7912;51.376;6.126;2023-02-01T00:29:31;101689.00;;;9.90
15626;BMP180;7912;51.376;6.126;2023-02-01T00:31:58;101678.00;;;9.80
15626;BMP180;7912;51.376;6.126;2023-02-01T00:34:26;101668.00;;;9.80
15626;BMP180;7912;51.376;6.126;2023-02-01T00:36:53;101648.00;;;9.70
15626;BMP180;7912;51.376;6.126;2023-02-01T00:39:20;101646.00;;;9.70
15626;BMP180;7912;51.376;6.126;2023-02-01T00:41:47;101636.00;;;9.70
15626;BMP180;7912;51.376;6.126;2023-02-01T00:44:15;101632.00;;;9.70
15626;BMP180;7912;51.376;6.126;2023-02-01T00:46:42;101645.00;;;9.60
15626;BMP180;7912;51.376;6.126;2023-02-01T00:49:10;101648.00;;;9.60
15626;BMP180;7912;51.376;6.126;2023-02-01T00:51:37;101639.00;;;9.60
15626;BMP180;7912;51.376;6.126;2023-02-01T00:54:04;101658.00;;;9.60
15626;BMP180;7912;51.376;6.126;2023-02-01T00:56:31;101671.00;;;9.50
15626;BMP180;7912;51.376;6.126;2023-02-01T00:58:59;101677.00;;;9.50
15626;BMP180;7912;51.376;6.126;2023-02-01T01:01:27;101674.00;;;9.50
15626;BMP180;7912;51.376;6.126;2023-02-01T01:03:58;101684.00;;;9.50
15626;BMP180;7912;51.376;6.126;2023-02-01T01:06:31;101681.00;;;9.40
15626;BMP180;7912;51.376;6.126;2023-02-01T01:09:03;101682.00;;;9.30
15626;BMP180;7912;51.376;6.126;2023-02-01T01:11:35;101683.00;;;9.30
15626;BMP180;7912;51.376;6.126;2023-02-01T01:14:05;101675.00;;;9.20
15626;BMP180;7912;51.376;6.126;2023-02-01T01:16:33;101693.00;;;9.20
15626;BMP180;7912;51.376;6.126;2023-02-01T01:19:01;101681.00;;;9.10
15626;BMP180;7912;51.376;6.126;2023-02-01T01:21:30;101682.00;;;9.20
15626;BMP180;7912;51.376;6.126;2023-02-01T01:23:57;101686.00;;;9.20
15626;BMP180;7912;51.376;6.126;2023-02-01T01:26:28;101696.00;;;9.10
15626;BMP180;7912;51.376;6.126;2023-02-01T01:28:58;101692.00;;;9.10
15626;BMP180;7912;51.376;6.126;2023-02-01T01:31:26;101687.00;;;9.10
15626;BMP180;7912;51.376;6.126;2023-02-01T01:33:56;101688.00;;;9.10
15626;BMP180;7912;51.376;6.126;2023-02-01T01:36:26;101669.00;;;9.10
15626;BMP180;7912;51.376;6.126;2023-02-01T01:38:53;101668.00;;;9.10
15626;BMP180;7912;51.376;6.126;2023-02-01T01:41:29;101670.00;;;9.00
15626;BMP180;7912;51.376;6.126;2023-02-01T01:44:04;101673.00;;;9.00
15626;BMP180;7912;51.376;6.126;2023-02-01T01:46:37;101665.00;;;9.00
15626;BMP180;7912;51.376;6.126;2023-02-01T01:49:22;101669.00;;;8.90
15626;BMP180;7912;51.376;6.126;2023-02-01T01:51:51;101664.00;;;8.90
15626;BMP180;7912;51.376;6.126;2023-02-01T01:54:35;101655.00;;;8.90
15626;BMP180;7912;51.376;6.126;2023-02-01T02:00:11;101668.00;;;8.80
15626;BMP180;7912;51.376;6.126;2023-02-01T02:02:41;101672.00;;;8.80
15626;BMP180;7912;51.376;6.126;2023-02-01T02:05:10;101668.00;;;8.80
15626;BMP180;7912;51.376;6.126;2023-02-01T02:07:46;101675.00;;;8.70
15626;BMP180;7912;51.376;6.126;2023-02-01T02:10:16;101671.00;;;8.70
15626;BMP180;7912;51.376;6.126;2023-02-01T02:12:47;101671.00;;;8.70
15626;BMP180;7912;51.376;6.126;2023-02-01T02:15:16;101672.00;;;8.60
15626;BMP180;7912;51.376;6.126;2023-02-01T02:17:53;101681.00;;;8.60
15626;BMP180;7912;51.376;6.126;2023-02-01T02:21:03;101665.00;;;8.60
15626;BMP180;7912;51.376;6.126;2023-02-01T02:39:37;101644.00;;;8.30
15626;BMP180;7912;51.376;6.126;2023-02-01T02:48:33;101642.00;;;8.20
15626;BMP180;7912;51.376;6.126;2023-02-01T02:54:24;101631.00;;;8.20
15626;BMP180;7912;51.376;6.126;2023-02-01T03:00:05;101635.00;;;8.20
15626;BMP180;7912;51.376;6.126;2023-02-01T03:02:52;101632.00;;;8.30
15626;BMP180;7912;51.376;6.126;2023-02-01T03:05:44;101635.00;;;8.30
15626;BMP180;7912;51.376;6.126;2023-02-01T03:08:19;101636.00;;;8.40
15626;BMP180;7912;51.376;6.126;2023-02-01T03:11:07;101622.00;;;8.40
15626;BMP180;7912;51.376;6.126;2023-02-01T03:13:57;101625.00;;;8.50
15626;BMP180;7912;51.376;6.126;2023-02-01T03:16:35;101628.00;;;8.60
15626;BMP180;7912;51.376;6.126;2023-02-01T03:19:25;101607.00;;;8.60
15626;BMP180;7912;51.376;6.126;2023-02-01T03:24:42;101612.00;;;8.70
15626;BMP180;7912;51.376;6.126;2023-02-01T03:27:41;101607.00;;;8.70
15626;BMP180;7912;51.376;6.126;2023-02-01T03:30:29;101612.00;;;8.80
15626;BMP180;7912;51.376;6.126;2023-02-01T03:33:00;101609.00;;;8.80
15626;BMP180;7912;51.376;6.126;2023-02-01T03:35:39;101602.00;;;8.80
15626;BMP180;7912;51.376;6.126;2023-02-01T03:38:21;101607.00;;;8.80
15626;BMP180;7912;51.376;6.126;2023-02-01T03:43:36;101619.00;;;8.80
15626;BMP180;7912;51.376;6.126;2023-02-01T03:46:19;101624.00;;;8.80
15626;BMP180;7912;51.376;6.126;2023-02-01T03:48:50;101608.00;;;8.80
15626;BMP180;7912;51.376;6.126;2023-02-01T03:55:29;101608.00;;;8.80
15626;BMP180;7912;51.376;6.126;2023-02-01T03:58:18;101595.00;;;8.80
15626;BMP180;7912;51.376;6.126;2023-02-01T04:00:58;101594.00;;;8.80
15626;BMP180;7912;51.376;6.126;2023-02-01T04:03:27;101583.00;;;8.80
15626;BMP180;7912;51.376;6.126;2023-02-01T04:05:55;101583.00;;;8.80
15626;BMP180;7912;51.376;6.126;2023-02-01T04:08:23;101573.00;;;8.80
15626;BMP180;7912;51.376;6.126;2023-02-01T04:10:50;101594.00;;;8.80
15626;BMP180;7912;51.376;6.126;2023-02-01T04:13:18;101587.00;;;8.70
15626;BMP180;7912;51.376;6.126;2023-02-01T04:15:47;101591.00;;;8.70
15626;BMP180;7912;51.376;6.126;2023-02-01T04:18:17;101594.00;;;8.70
15626;BMP180;7912;51.376;6.126;2023-02-01T04:20:44;101563.00;;;8.60
15626;BMP180;7912;51.376;6.126;2023-02-01T04:23:11;101562.00;;;8.60
15626;BMP180;7912;51.376;6.126;2023-02-01T04:25:39;101584.00;;;8.50
15626;BMP180;7912;51.376;6.126;2023-02-01T04:28:06;101577.00;;;8.50
15626;BMP180;7912;51.376;6.126;2023-02-01T04:30:34;101573.00;;;8.50
15626;BMP180;7912;51.376;6.126;2023-02-01T04:33:01;101578.00;;;8.40
15626;BMP180;7912;51.376;6.126;2023-02-01T04:35:32;101563.00;;;8.40
15626;BMP180;7912;51.376;6.126;2023-02-01T04:38:00;101588.00;;;8.30
15626;BMP180;7912;51.376;6.126;2023-02-01T04:40:27;101588.00;;;8.30
15626;BMP180;7912;51.376;6.126;2023-02-01T04:42:54;101591.00;;;8.30
15626;BMP180;7912;51.376;6.126;2023-02-01T04:45:21;101591.00;;;8.30
15626;BMP180;7912;51.376;6.126;2023-02-01T04:47:49;101600.00;;;8.30
15626;BMP180;7912;51.376;6.126;2023-02-01T04:50:16;101609.00;;;8.30
15626;BMP180;7912;51.376;6.126;2023-02-01T04:52:43;101608.00;;;8.30
15626;BMP180;7912;51.376;6.126;2023-02-01T04:55:12;101602.00;;;8.30
15626;BMP180;7912;51.376;6.126;2023-02-01T04:57:42;101596.00;;;8.20
15626;BMP180;7912;51.376;6.126;2023-02-01T05:00:10;101606.00;;;8.20
15626;BMP180;7912;51.376;6.126;2023-02-01T05:02:38;101593.00;;;8.20
15626;BMP180;7912;51.376;6.126;2023-02-01T05:05:06;101596.00;;;8.20
15626;BMP180;7912;51.376;6.126;2023-02-01T05:07:36;101602.00;;;8.20
15626;BMP180;7912;51.376;6.126;2023-02-01T05:10:03;101609.00;;;8.10
15626;BMP180;7912;51.376;6.126;2023-02-01T05:12:30;101602.00;;;8.20
15626;BMP180;7912;51.376;6.126;2023-02-01T05:15:16;101601.00;;;8.10
15626;BMP180;7912;51.376;6.126;2023-02-01T05:17:43;101583.00;;;8.10
15626;BMP180;7912;51.376;6.126;2023-02-01T05:20:11;101596.00;;;8.10
15626;BMP180;7912;51.376;6.126;2023-02-01T05:22:38;101603.00;;;8.10
15626;BMP180;7912;51.376;6.126;2023-02-01T05:25:06;101609.00;;;8.20
15626;BMP180;7912;51.376;6.126;2023-02-01T05:27:34;101594.00;;;8.20
15626;BMP180;7912;51.376;6.126;2023-02-01T05:30:04;101607.00;;;8.10
15626;BMP180;7912;51.376;6.126;2023-02-01T05:32:32;101589.00;;;8.10
15626;BMP180;7912;51.376;6.126;2023-02-01T05:34:59;101579.00;;;8.10
15626;BMP180;7912;51.376;6.126;2023-02-01T05:37:27;101592.00;;;8.10
15626;BMP180;7912;51.376;6.126;2023-02-01T05:39:54;101598.00;;;8.10
15626;BMP180;7912;51.376;6.126;2023-02-01T05:42:22;101585.00;;;8.10
15626;BMP180;7912;51.376;6.126;2023-02-01T05:44:49;101578.00;;;8.10
15626;BMP180;7912;51.376;6.126;2023-02-01T05:47:16;101576.00;;;8.10
15626;BMP180;7912;51.376;6.126;2023-02-01T05:49:43;101597.00;;;8.10
15626;BMP180;7912;51.376;6.126;2023-02-01T05:52:11;101580.00;;;8.10
15626;BMP180;7912;51.376;6.126;2023-02-01T05:54:38;101593.00;;;8.10
15626;BMP180;7912;51.376;6.126;2023-02-01T05:57:05;101592.00;;;8.10
15626;BMP180;7912;51.376;6.126;2023-02-01T05:59:32;101606.00;;;8.20
15626;BMP180;7912;51.376;6.126;2023-02-01T06:01:59;101591.00;;;8.20
15626;BMP180;7912;51.376;6.126;2023-02-01T06:04:27;101609.00;;;8.20
15626;BMP180;7912;51.376;6.126;2023-02-01T06:06:54;101593.00;;;8.30
15626;BMP180;7912;51.376;6.126;2023-02-01T06:09:21;101594.00;;;8.30
15626;BMP180;7912;51.376;6.126;2023-02-01T06:11:48;101587.00;;;8.40
15626;BMP180;7912;51.376;6.126;2023-02-01T06:14:16;101594.00;;;8.40
15626;BMP180;7912;51.376;6.126;2023-02-01T06:16:43;101595.00;;;8.50
15626;BMP180;7912;51.376;6.126;2023-02-01T06:19:13;101595.00;;;8.50
15626;BMP180;7912;51.376;6.126;2023-02-01T06:21:40;101596.00;;;8.50
15626;BMP180;7912;51.376;6.126;2023-02-01T06:24:08;101596.00;;;8.50
15626;BMP180;7912;51.376;6.126;2023-02-01T06:26:36;101597.00;;;8.50
15626;BMP180;7912;51.376;6.126;2023-02-01T06:29:12;101589.00;;;8.60
15626;BMP180;7912;51.376;6.126;2023-02-01T06:31:40;101604.00;;;8.60
15626;BMP180;7912;51.376;6.126;2023-02-01T06:34:10;101587.00;;;8.60
15626;BMP180;7912;51.376;6.126;2023-02-01T06:36:37;101579.00;;;8.60
15626;BMP180;7912;51.376;6.126;2023-02-01T06:39:05;101581.00;;;8.60
15626;BMP180;7912;51.376;6.126;2023-02-01T06:41:32;101583.00;;;8.60
15626;BMP180;7912;51.376;6.126;2023-02-01T06:48:44;101586.00;;;8.50
15626;BMP180;7912;51.376;6.126;2023-02-01T06:51:27;101586.00;;;8.50
15626;BMP180;7912;51.376;6.126;2023-02-01T06:53:56;101605.00;;;8.50
15626;BMP180;7912;51.376;6.126;2023-02-01T06:56:24;101591.00;;;8.50
15626;BMP180;7912;51.376;6.126;2023-02-01T06:58:54;101616.00;;;8.60
15626;BMP180;7912;51.376;6.126;2023-02-01T07:01:22;101617.00;;;8.60
15626;BMP180;7912;51.376;6.126;2023-02-01T07:03:50;101606.00;;;8.70
15626;BMP180;7912;51.376;6.126;2023-02-01T07:06:18;101608.00;;;8.70
15626;BMP180;7912;51.376;6.126;2023-02-01T07:08:46;101598.00;;;8.70
15626;BMP180;7912;51.376;6.126;2023-02-01T07:11:14;101616.00;;;8.80
15626;BMP180;7912;51.376;6.126;2023-02-01T07:13:43;101600.00;;;8.80
15626;BMP180;7912;51.376;6.126;2023-02-01T07:16:17;101596.00;;;8.80
15626;BMP180;7912;51.376;6.126;2023-02-01T07:18:45;101606.00;;;8.80
15626;BMP180;7912;51.376;6.126;2023-02-01T07:21:13;101603.00;;;8.90
15626;BMP180;7912;51.376;6.126;2023-02-01T07:23:40;101594.00;;;8.90
15626;BMP180;7912;51.376;6.126;2023-02-01T07:26:11;101592.00;;;8.90
15626;BMP180;7912;51.376;6.126;2023-02-01T07:28:40;101601.00;;;8.90
15626;BMP180;7912;51.376;6.126;2023-02-01T07:31:13;101593.00;;;9.00
15626;BMP180;7912;51.376;6.126;2023-02-01T07:33:42;101608.00;;;9.00
15626;BMP180;7912;51.376;6.126;2023-02-01T07:36:16;101608.00;;;9.10
15626;BMP180;7912;51.376;6.126;2023-02-01T07:38:44;101614.00;;;9.10
15626;BMP180;7912;51.376;6.126;2023-02-01T07:41:11;101630.00;;;9.10
15626;BMP180;7912;51.376;6.126;2023-02-01T07:43:38;101626.00;;;9.10
15626;BMP180;7912;51.376;6.126;2023-02-01T07:46:06;101621.00;;;9.10
15626;BMP180;7912;51.376;6.126;2023-02-01T07:48:34;101622.00;;;9.10
15626;BMP180;7912;51.376;6.126;2023-02-01T07:51:11;101627.00;;;9.10
15626;BMP180;7912;51.376;6.126;2023-02-01T07:53:39;101612.00;;;9.00
15626;BMP180;7912;51.376;6.126;2023-02-01T07:56:17;101629.00;;;9.00
15626;BMP180;7912;51.376;6.126;2023-02-01T07:58:51;101618.00;;;8.90
15626;BMP180;7912;51.376;6.126;2023-02-01T08:01:23;101607.00;;;8.90
15626;BMP180;7912;51.376;6.126;2023-02-01T08:06:23;101620.00;;;8.80
15626;BMP180;7912;51.376;6.126;2023-02-01T08:08:52;101634.00;;;8.80
15626;BMP180;7912;51.376;6.126;2023-02-01T08:11:22;101613.00;;;8.80
15626;BMP180;7912;51.376;6.126;2023-02-01T08:13:51;101626.00;;;8.80
15626;BMP180;7912;51.376;6.126;2023-02-01T08:16:21;101624.00;;;8.80
15626;BMP180;7912;51.376;6.126;2023-02-01T08:18:49;101632.00;;;8.80
15626;BMP180;7912;51.376;6.126;2023-02-01T08:21:21;101629.00;;;8.80
15626;BMP180;7912;51.376;6.126;2023-02-01T08:23:49;101639.00;;;8.80
15626;BMP180;7912;51.376;6.126;2023-02-01T08:26:25;101634.00;;;8.80
15626;BMP180;7912;51.376;6.126;2023-02-01T08:28:57;101641.00;;;8.80
15626;BMP180;7912;51.376;6.126;2023-02-01T08:31:27;101654.00;;;8.80
15626;BMP180;7912;51.376;6.126;2023-02-01T08:33:58;101641.00;;;8.80
15626;BMP180;7912;51.376;6.126;2023-02-01T08:36:30;101658.00;;;8.70
15626;BMP180;7912;51.376;6.126;2023-02-01T08:38:57;101658.00;;;8.70
15626;BMP180;7912;51.376;6.126;2023-02-01T08:41:29;101658.00;;;8.70
15626;BMP180;7912;51.376;6.126;2023-02-01T08:43:57;101665.00;;;8.80
15626;BMP180;7912;51.376;6.126;2023-02-01T08:46:27;101652.00;;;8.80
15626;BMP180;7912;51.376;6.126;2023-02-01T08:48:59;101666.00;;;8.80
15626;BMP180;7912;51.376;6.126;2023-02-01T08:51:26;101660.00;;;8.90
15626;BMP180;7912;51.376;6.126;2023-02-01T08:53:56;101655.00;;;8.90
15626;BMP180;7912;51.376;6.126;2023-02-01T08:56:23;101661.00;;;9.00
15626;BMP180;7912;51.376;6.126;2023-02-01T08:58:50;101659.00;;;9.00
15626;BMP180;7912;51.376;6.126;2023-02-01T09:01:18;101658.00;;;9.00
15626;BMP180;7912;51.376;6.126;2023-02-01T09:03:45;101659.00;;;9.00
15626;BMP180;7912;51.376;6.126;2023-02-01T09:06:15;101654.00;;;9.10
15626;BMP180;7912;51.376;6.126;2023-02-01T09:08:44;101636.00;;;9.10
15626;BMP180;7912;51.376;6.126;2023-02-01T09:11:15;101645.00;;;9.20
15626;BMP180;7912;51.376;6.126;2023-02-01T09:13:43;101637.00;;;9.20
15626;BMP180;7912;51.376;6.126;2023-02-01T09:16:11;101635.00;;;9.30
15626;BMP180;7912;51.376;6.126;2023-02-01T09:18:41;101647.00;;;9.40
15626;BMP180;7912;51.376;6.126;2023-02-01T09:21:28;101631.00;;;9.50
15626;BMP180;7912;51.376;6.126;2023-02-01T09:23:55;101649.00;;;9.60
15626;BMP180;7912;51.376;6.126;2023-02-01T09:26:23;101640.00;;;9.70
15626;BMP180;7912;51.376;6.126;2023-02-01T09:29:00;101637.00;;;9.80
15626;BMP180;7912;51.376;6.126;2023-02-01T09:31:30;101635.00;;;9.80
15626;BMP180;7912;51.376;6.126;2023-02-01T09:33:58;101640.00;;;9.80
15626;BMP180;7912;51.376;6.126;2023-02-01T09:36:27;101650.00;;;9.90
15626;BMP180;7912;51.376;6.126;2023-02-01T09:38:57;101644.00;;;9.90
15626;BMP180;7912;51.376;6.126;2023-02-01T09:47:17;101635.00;;;10.00
15626;BMP180;7912;51.376;6.126;2023-02-01T09:50:11;101621.00;;;10.10
15626;BMP180;7912;51.376;6.126;2023-02-01T09:55:50;101624.00;;;10.20
15626;BMP180;7912;51.376;6.126;2023-02-01T09:58:40;101620.00;;;10.30
15626;BMP180;7912;51.376;6.126;2023-02-01T10:01:21;101620.00;;;10.40
15626;BMP180;7912;51.376;6.126;2023-02-01T10:04:18;101612.00;;;10.50
15626;BMP180;7912;51.376;6.126;2023-02-01T10:15:26;101625.00;;;10.80
15626;BMP180;7912;51.376;6.126;2023-02-01T10:21:12;101615.00;;;10.80
15626;BMP180;7912;51.376;6.126;2023-02-01T10:24:16;101614.00;;;10.90
15626;BMP180;7912;51.376;6.126;2023-02-01T10:26:53;101605.00;;;10.90
15626;BMP180;7912;51.376;6.126;2023-02-01T10:29:33;101621.00;;;10.90
15626;BMP180;7912;51.376;6.126;2023-02-01T10:32:03;101606.00;;;11.00
15626;BMP180;7912;51.376;6.126;2023-02-01T10:34:38;101627.00;;;11.00
15626;BMP180;7912;51.376;6.126;2023-02-01T10:37:23;101619.00;;;11.10
15626;BMP180;7912;51.376;6.126;2023-02-01T10:39:55;101624.00;;;11.10
15626;BMP180;7912;51.376;6.126;2023-02-01T10:42:29;101636.00;;;11.10
15626;BMP180;7912;51.376;6.126;2023-02-01T10:45:01;101609.00;;;11.10
15626;BMP180;7912;51.376;6.126;2023-02-01T10:47:29;101633.00;;;11.10
15626;BMP180;7912;51.376;6.126;2023-02-01T10:53:08;101623.00;;;11.20
15626;BMP180;7912;51.376;6.126;2023-02-01T10:55:55;101633.00;;;11.20
15626;BMP180;7912;51.376;6.126;2023-02-01T10:58:29;101618.00;;;11.30
15626;BMP180;7912;51.376;6.126;2023-02-01T11:01:07;101605.00;;;11.40
15626;BMP180;7912;51.376;6.126;2023-02-01T11:03:57;101598.00;;;11.40
15626;BMP180;7912;51.376;6.126;2023-02-01T11:06:35;101595.00;;;11.40
15626;BMP180;7912;51.376;6.126;2023-02-01T11:17:22;101585.00;;;11.50
15626;BMP180;7912;51.376;6.126;2023-02-01T11:20:03;101587.00;;;11.60
15626;BMP180;7912;51.376;6.126;2023-02-01T11:22:34;101569.00;;;11.50
15626;BMP180;7912;51.376;6.126;2023-02-01T11:25:09;101559.00;;;11.60
15626;BMP180;7912;51.376;6.126;2023-02-01T11:27:38;101567.00;;;11.70
15626;BMP180;7912;51.376;6.126;2023-02-01T11:30:33;101561.00;;;11.80
15626;BMP180;7912;51.376;6.126;2023-02-01T11:33:05;101563.00;;;11.80
15626;BMP180;7912;51.376;6.126;2023-02-01T11:35:37;101566.00;;;11.80
15626;BMP180;7912;51.376;6.126;2023-02-01T11:38:33;101551.00;;;11.80
15626;BMP180;7912;51.376;6.126;2023-02-01T11:41:27;101550.00;;;11.90
15626;BMP180;7912;51.376;6.126;2023-02-01T11:44:18;101554.00;;;11.90
15626;BMP180;7912;51.376;6.126;2023-02-01T11:46:46;101547.00;;;11.90
15626;BMP180;7912;51.376;6.126;2023-02-01T11:49:27;101532.00;;;12.00
15626;BMP180;7912;51.376;6.126;2023-02-01T11:55:48;101536.00;;;11.90
15626;BMP180;7912;51.376;6.126;2023-02-01T12:02:08;101539.00;;;11.80
15626;BMP180;7912;51.376;6.126;2023-02-01T12:13:48;101527.00;;;11.80
15626;BMP180;7912;51.376;6.126;2023-02-01T12:31:31;101521.00;;;11.90
15626;BMP180;7912;51.376;6.126;2023-02-01T12:34:40;101507.00;;;11.90
15626;BMP180;7912;51.376;6.126;2023-02-01T12:44:17;101505.00;;;11.90
15626;BMP180;7912;51.376;6.126;2023-02-01T12:46:53;101484.00;;;11.90
15626;BMP180;7912;51.376;6.126;2023-02-01T12:52:19;101507.00;;;11.90
15626;BMP180;7912;51.376;6.126;2023-02-01T12:57:40;101511.00;;;11.90
15626;BMP180;7912;51.376;6.126;2023-02-01T13:00:24;101492.00;;;11.90
15626;BMP180;7912;51.376;6.126;2023-02-01T13:08:50;101488.00;;;11.90
15626;BMP180;7912;51.376;6.126;2023-02-01T13:11:28;101485.00;;;11.90
15626;BMP180;7912;51.376;6.126;2023-02-01T13:17:18;101501.00;;;11.90
15626;BMP180;7912;51.376;6.126;2023-02-01T13:23:14;101498.00;;;11.90
15626;BMP180;7912;51.376;6.126;2023-02-01T13:25:49;101491.00;;;12.00
15626;BMP180;7912;51.376;6.126;2023-02-01T13:28:56;101504.00;;;12.10
15626;BMP180;7912;51.376;6.126;2023-02-01T13:43:17;101489.00;;;12.60
15626;BMP180;7912;51.376;6.126;2023-02-01T13:45:56;101479.00;;;12.60
15626;BMP180;7912;51.376;6.126;2023-02-01T13:48:55;101502.00;;;12.60
15626;BMP180;7912;51.376;6.126;2023-02-01T13:54:01;101497.00;;;12.60
15626;BMP180;7912;51.376;6.126;2023-02-01T13:56:39;101494.00;;;12.50
15626;BMP180;7912;51.376;6.126;2023-02-01T14:05:59;101505.00;;;12.40
15626;BMP180;7912;51.376;6.126;2023-02-01T14:10:55;101520.00;;;12.40
15626;BMP180;7912;51.376;6.126;2023-02-01T14:13:41;101511.00;;;12.40
15626;BMP180;7912;51.376;6.126;2023-02-01T14:16:17;101521.00;;;12.40
15626;BMP180;7912;51.376;6.126;2023-02-01T14:21:27;101512.00;;;12.40
15626;BMP180;7912;51.376;6.126;2023-02-01T14:30:06;101527.00;;;12.40
15626;BMP180;7912;51.376;6.126;2023-02-01T14:32:40;101514.00;;;12.50
15626;BMP180;7912;51.376;6.126;2023-02-01T14:35:24;101521.00;;;12.40
15626;BMP180;7912;51.376;6.126;2023-02-01T14:38:00;101533.00;;;12.40
15626;BMP180;7912;51.376;6.126;2023-02-01T14:40:34;101536.00;;;12.50
15626;BMP180;7912;51.376;6.126;2023-02-01T14:43:02;101522.00;;;12.40
15626;BMP180;7912;51.376;6.126;2023-02-01T14:50:44;101542.00;;;12.40
15626;BMP180;7912;51.376;6.126;2023-02-01T14:56:06;101552.00;;;12.40
15626;BMP180;7912;51.376;6.126;2023-02-01T14:59:07;101541.00;;;12.40
15626;BMP180;7912;51.376;6.126;2023-02-01T15:01:50;101547.00;;;12.30
15626;BMP180;7912;51.376;6.126;2023-02-01T15:04:18;101546.00;;;12.40
15626;BMP180;7912;51.376;6.126;2023-02-01T15:07:05;101535.00;;;12.40
15626;BMP180;7912;51.376;6.126;2023-02-01T15:09:55;101541.00;;;12.30
15626;BMP180;7912;51.376;6.126;2023-02-01T15:12:27;101556.00;;;12.30
15626;BMP180;7912;51.376;6.126;2023-02-01T15:15:22;101563.00;;;12.30
15626;BMP180;7912;51.376;6.126;2023-02-01T15:17:57;101547.00;;;12.30
15626;BMP180;7912;51.376;6.126;2023-02-01T15:20:30;101539.00;;;12.30
15626;BMP180;7912;51.376;6.126;2023-02-01T15:23:03;101558.00;;;12.30
15626;BMP180;7912;51.376;6.126;2023-02-01T15:25:37;101551.00;;;12.30
15626;BMP180;7912;51.376;6.126;2023-02-01T15:28:13;101544.00;;;12.30
15626;BMP180;7912;51.376;6.126;2023-02-01T15:30:57;101554.00;;;12.30
15626;BMP180;7912;51.376;6.126;2023-02-01T15:33:27;101553.00;;;12.20
15626;BMP180;7912;51.376;6.126;2023-02-01T15:36:18;101560.00;;;12.20
15626;BMP180;7912;51.376;6.126;2023-02-01T15:38:47;101555.00;;;12.10
15626;BMP180;7912;51.376;6.126;2023-02-01T15:41:20;101563.00;;;12.10
15626;BMP180;7912;51.376;6.126;2023-02-01T15:46:36;101561.00;;;12.10
15626;BMP180;7912;51.376;6.126;2023-02-01T15:52:45;101557.00;;;12.10
15626;BMP180;7912;51.376;6.126;2023-02-01T15:55:31;101562.00;;;12.00
15626;BMP180;7912;51.376;6.126;2023-02-01T15:58:07;101548.00;;;11.90
15626;BMP180;7912;51.376;6.126;2023-02-01T16:00:49;101565.00;;;11.90
15626;BMP180;7912;51.376;6.126;2023-02-01T16:03:40;101553.00;;;11.90
15626;BMP180;7912;51.376;6.126;2023-02-01T16:06:30;101567.00;;;11.90
15626;BMP180;7912;51.376;6.126;2023-02-01T16:11:32;101571.00;;;11.80
15626;BMP180;7912;51.376;6.126;2023-02-01T16:14:00;101579.00;;;11.80
15626;BMP180;7912;51.376;6.126;2023-02-01T16:16:29;101584.00;;;11.80
15626;BMP180;7912;51.376;6.126;2023-02-01T16:18:57;101576.00;;;11.90
15626;BMP180;7912;51.376;6.126;2023-02-01T16:21:24;101591.00;;;11.80
15626;BMP180;7912;51.376;6.126;2023-02-01T16:23:52;101593.00;;;11.80
15626;BMP180;7912;51.376;6.126;2023-02-01T16:26:20;101596.00;;;11.80
15626;BMP180;7912;51.376;6.126;2023-02-01T16:28:48;101603.00;;;11.80
15626;BMP180;7912;51.376;6.126;2023-02-01T16:31:19;101602.00;;;11.80
15626;BMP180;7912;51.376;6.126;2023-02-01T16:33:51;101593.00;;;11.70
15626;BMP180;7912;51.376;6.126;2023-02-01T16:36:19;101612.00;;;11.70
15626;BMP180;7912;51.376;6.126;2023-02-01T16:38:47;101614.00;;;11.70
15626;BMP180;7912;51.376;6.126;2023-02-01T16:41:21;101602.00;;;11.70
15626;BMP180;7912;51.376;6.126;2023-02-01T16:43:52;101592.00;;;11.60
15626;BMP180;7912;51.376;6.126;2023-02-01T16:46:23;101593.00;;;11.60
15626;BMP180;7912;51.376;6.126;2023-02-01T16:48:57;101587.00;;;11.60
15626;BMP180;7912;51.376;6.126;2023-02-01T16:51:31;101602.00;;;11.60
15626;BMP180;7912;51.376;6.126;2023-02-01T16:54:00;101602.00;;;11.60
15626;BMP180;7912;51.376;6.126;2023-02-01T16:56:33;101623.00;;;11.60
15626;BMP180;7912;51.376;6.126;2023-02-01T16:59:00;101613.00;;;11.60
15626;BMP180;7912;51.376;6.126;2023-02-01T17:01:28;101619.00;;;11.60
15626;BMP180;7912;51.376;6.126;2023-02-01T17:03:55;101607.00;;;11.60
15626;BMP180;7912;51.376;6.126;2023-02-01T17:06:25;101620.00;;;11.60
15626;BMP180;7912;51.376;6.126;2023-02-01T17:08:57;101622.00;;;11.60
15626;BMP180;7912;51.376;6.126;2023-02-01T17:11:26;101627.00;;;11.60
15626;BMP180;7912;51.376;6.126;2023-02-01T17:13:54;101625.00;;;11.60
15626;BMP180;7912;51.376;6.126;2023-02-01T17:16:29;101625.00;;;11.60
15626;BMP180;7912;51.376;6.126;2023-02-01T17:19:11;101629.00;;;11.60
15626;BMP180;7912;51.376;6.126;2023-02-01T17:21:48;101642.00;;;11.60
15626;BMP180;7912;51.376;6.126;2023-02-01T17:24:21;101636.00;;;11.60
15626;BMP180;7912;51.376;6.126;2023-02-01T17:26:49;101641.00;;;11.60
15626;BMP180;7912;51.376;6.126;2023-02-01T17:29:18;101637.00;;;11.70
15626;BMP180;7912;51.376;6.126;2023-02-01T17:31:51;101636.00;;;11.70
15626;BMP180;7912;51.376;6.126;2023-02-01T17:34:22;101651.00;;;11.70
15626;BMP180;7912;51.376;6.126;2023-02-01T17:36:49;101648.00;;;11.70
15626;BMP180;7912;51.376;6.126;2023-02-01T17:39:18;101636.00;;;11.70
15626;BMP180;7912;51.376;6.126;2023-02-01T17:42:08;101639.00;;;11.70
15626;BMP180;7912;51.376;6.126;2023-02-01T17:44:37;101647.00;;;11.70
15626;BMP180;7912;51.376;6.126;2023-02-01T17:47:04;101630.00;;;11.70
15626;BMP180;7912;51.376;6.126;2023-02-01T17:49:31;101640.00;;;11.70
15626;BMP180;7912;51.376;6.126;2023-02-01T17:52:00;101634.00;;;11.70
15626;BMP180;7912;51.376;6.126;2023-02-01T17:54:28;101637.00;;;11.70